Time;durP1;ratioP1;P1;durP2;ratioP2;P2;SDS_P1;SDS_P2;PMS_P1;PMS_P2;Temp;Humidity;BMP_temperature;BMP_pressure;BME280_temperature;BME280_humidity;BME280_pressure;Samples;Min_cycle;Max_cycle;Signal;HPM_P1;HPM_P2
2022/06/24 00:00:07;;;;;;;7.17;2.40;;;25.10;99.90;;;;;;5017587;28;20581;-78
2022/06/24 00:02:33;;;;;;;4.77;2.33;;;25.20;99.90;;;;;;5028566;28;20969;-78
2022/06/24 00:05:04;;;;;;;3.37;2.20;;;25.20;99.90;;;;;;5020280;28;20580;-78
2022/06/24 00:07:42;;;;;;;3.00;1.93;;;25.20;99.90;;;;;;5022126;28;21149;-78
2022/06/24 00:10:18;;;;;;;4.07;2.10;;;25.30;99.90;;;;;;5029540;28;20588;-78
2022/06/24 00:12:47;;;;;;;5.90;2.60;;;25.20;99.90;;;;;;5001833;28;20619;-81
2022/06/24 00:15:14;;;;;;;7.70;3.80;;;25.20;99.90;;;;;;5025444;28;20632;-79
2022/06/24 00:17:40;;;;;;;11.80;3.70;;;25.10;99.90;;;;;;5024423;28;21186;-79
2022/06/24 00:20:08;;;;;;;6.40;3.33;;;25.00;99.90;;;;;;5018062;28;20668;-78
2022/06/24 00:22:48;;;;;;;10.83;4.20;;;24.90;99.90;;;;;;5029653;28;20674;-79
2022/06/24 00:25:25;;;;;;;10.03;2.97;;;24.50;99.90;;;;;;5022248;28;20604;-79
2022/06/24 00:28:07;;;;;;;5.03;2.93;;;24.20;99.90;;;;;;5020511;28;20580;-78
2022/06/24 00:30:50;;;;;;;6.83;3.20;;;23.80;99.90;;;;;;5031531;28;20577;-79
2022/06/24 00:33:21;;;;;;;4.93;3.70;;;23.50;99.90;;;;;;5023383;28;20615;-79
2022/06/24 00:35:53;;;;;;;5.57;3.20;;;23.30;99.90;;;;;;5021999;28;20588;-78
2022/06/24 00:38:33;;;;;;;7.57;2.90;;;23.10;99.90;;;;;;5029948;28;20572;-78
2022/06/24 00:41:08;;;;;;;4.73;2.40;;;22.90;99.90;;;;;;5019273;28;20572;-78
2022/06/24 00:43:46;;;;;;;5.43;2.40;;;22.80;99.90;;;;;;5022087;28;20973;-77
2022/06/24 00:46:24;;;;;;;4.07;2.30;;;22.80;99.90;;;;;;5028259;28;20588;-79
2022/06/24 00:48:51;;;;;;;4.93;2.10;;;22.70;99.90;;;;;;5002160;28;20634;-77
2022/06/24 00:51:18;;;;;;;4.17;1.57;;;22.60;99.90;;;;;;5022534;28;20596;-78
2022/06/24 00:53:49;;;;;;;7.07;2.80;;;22.50;99.90;;;;;;5025480;28;20628;-79
2022/06/24 00:56:17;;;;;;;5.07;1.70;;;22.50;99.90;;;;;;5015763;28;20582;-78
2022/06/24 00:58:57;;;;;;;5.07;2.47;;;22.40;99.90;;;;;;5029035;28;20583;-79
2022/06/24 01:01:39;;;;;;;3.60;2.00;;;22.40;99.90;;;;;;5006122;28;20595;-79
2022/06/24 01:04:07;;;;;;;5.80;2.37;;;22.30;99.90;;;;;;5022683;28;20672;-79
2022/06/24 01:06:36;;;;;;;7.13;3.00;;;22.20;99.90;;;;;;5034375;28;20592;-78
2022/06/24 01:09:03;;;;;;;10.60;2.77;;;22.20;99.90;;;;;;5025792;28;20704;-78
2022/06/24 01:11:33;;;;;;;5.23;2.13;;;22.20;99.90;;;;;;5026818;28;20680;-78
2022/06/24 01:13:59;;;;;;;4.17;2.57;;;22.10;99.90;;;;;;5032041;28;20640;-78
2022/06/24 01:16:26;;;;;;;6.60;2.70;;;22.10;99.90;;;;;;5020253;28;20581;-78
2022/06/24 01:18:53;;;;;;;5.57;2.77;;;22.10;99.90;;;;;;5022981;28;20568;-78
2022/06/24 01:21:48;;;;;;;6.67;2.47;;;22.10;99.90;;;;;;5024792;28;20605;-78
2022/06/24 01:24:18;;;;;;;5.03;1.97;;;22.10;99.90;;;;;;5029106;28;20581;-78
2022/06/24 01:26:47;;;;;;;4.20;2.20;;;22.10;99.90;;;;;;5016382;28;20680;-78
2022/06/24 01:29:14;;;;;;;5.50;1.73;;;22.10;99.90;;;;;;5032246;28;20572;-78
2022/06/24 01:31:48;;;;;;;3.23;1.70;;;22.10;99.90;;;;;;5020262;28;20598;-78
2022/06/24 01:34:15;;;;;;;4.60;1.73;;;22.10;99.90;;;;;;5029035;28;20681;-78
2022/06/24 01:36:41;;;;;;;3.40;1.73;;;22.10;99.90;;;;;;5012562;28;20577;-77
2022/06/24 01:39:07;;;;;;;3.93;1.63;;;22.10;99.90;;;;;;5019750;28;20568;-77
2022/06/24 01:41:34;;;;;;;6.93;2.47;;;22.10;99.90;;;;;;5020454;28;20933;-77
2022/06/24 01:44:01;;;;;;;2.97;1.83;;;22.10;99.90;;;;;;5017476;28;21049;-78
2022/06/24 01:46:27;;;;;;;2.60;1.60;;;22.10;99.90;;;;;;5020393;28;20588;-77
2022/06/24 01:48:53;;;;;;;3.17;1.87;;;22.10;99.90;;;;;;5012570;28;21041;-78
2022/06/24 01:51:21;;;;;;;2.37;1.70;;;22.10;99.90;;;;;;5011835;28;20577;-78
2022/06/24 01:53:47;;;;;;;3.77;1.53;;;22.10;99.90;;;;;;5012427;28;20198;-78
2022/06/24 01:56:13;;;;;;;2.70;1.60;;;22.10;99.90;;;;;;5012771;28;20624;-78
2022/06/24 01:58:39;;;;;;;3.23;1.83;;;22.10;99.90;;;;;;5012422;28;20569;-78
2022/06/24 02:01:05;;;;;;;3.50;2.17;;;22.10;99.90;;;;;;5012244;28;20193;-78
2022/06/24 02:03:34;;;;;;;6.23;2.83;;;22.20;99.90;;;;;;5011140;28;20613;-72
2022/06/24 02:06:05;;;;;;;5.47;1.70;;;22.20;99.90;;;;;;5012372;28;21168;-73
2022/06/24 02:08:31;;;;;;;3.40;2.03;;;22.20;99.90;;;;;;5010747;28;20585;-73
2022/06/24 02:13:43;;;;;;;3.10;1.70;;;22.30;99.90;;;;;;5011809;28;20241;-73
2022/06/24 02:16:10;;;;;;;3.20;1.80;;;22.30;99.90;;;;;;5012125;28;20569;-74
2022/06/24 02:18:36;;;;;;;3.80;2.20;;;22.30;99.90;;;;;;5010726;28;20576;-73
2022/06/24 02:21:02;;;;;;;3.63;2.57;;;22.30;99.90;;;;;;5021966;28;20663;-73
2022/06/24 02:23:30;;;;;;;4.67;2.00;;;22.30;99.90;;;;;;5031532;28;20611;-73
2022/06/24 02:25:56;;;;;;;3.57;2.33;;;22.30;99.90;;;;;;5031448;28;20551;-73
2022/06/24 02:28:22;;;;;;;7.03;2.03;;;22.30;99.90;;;;;;5031647;28;20908;-73
2022/06/24 02:30:51;;;;;;;4.33;2.60;;;22.30;99.90;;;;;;5030988;28;20552;-74
2022/06/24 02:33:17;;;;;;;4.80;2.33;;;22.30;99.90;;;;;;5031257;28;20639;-73
2022/06/24 02:35:42;;;;;;;3.00;1.60;;;22.30;99.90;;;;;;5030427;28;20596;-73
2022/06/24 02:38:08;;;;;;;3.17;2.50;;;22.30;99.90;;;;;;5031549;28;20165;-73
2022/06/24 02:40:47;;;;;;;4.23;2.10;;;22.30;99.90;;;;;;5030548;28;20170;-72
2022/06/24 02:43:24;;;;;;;2.93;2.10;;;22.30;99.90;;;;;;5031507;28;20204;-73
2022/06/24 02:45:54;;;;;;;3.10;2.00;;;22.30;99.90;;;;;;5031715;28;20575;-72
2022/06/24 02:48:21;;;;;;;2.60;1.80;;;22.30;99.90;;;;;;5030506;28;20676;-73
2022/06/24 02:50:49;;;;;;;2.20;1.90;;;22.30;99.90;;;;;;5029612;28;20679;-73
2022/06/24 02:53:16;;;;;;;2.07;1.50;;;22.30;99.90;;;;;;5030877;28;20623;-73
2022/06/24 02:55:48;;;;;;;2.80;1.53;;;22.20;99.90;;;;;;5031112;28;20579;-73
2022/06/24 02:58:14;;;;;;;3.60;1.80;;;22.20;99.90;;;;;;5035652;28;20604;-73
2022/06/24 03:00:44;;;;;;;2.80;1.70;;;22.20;99.90;;;;;;5033495;28;20635;-73
2022/06/24 03:03:12;;;;;;;2.43;1.80;;;22.20;99.90;;;;;;5035480;28;20593;-73
2022/06/24 03:05:38;;;;;;;4.70;1.80;;;22.10;99.90;;;;;;5050622;28;21036;-72
2022/06/24 03:08:04;;;;;;;2.90;1.97;;;22.10;99.90;;;;;;5035319;28;20571;-73
2022/06/24 03:10:30;;;;;;;1.90;1.63;;;22.10;99.90;;;;;;5032844;28;20625;-73
2022/06/24 03:12:56;;;;;;;2.80;2.00;;;22.10;99.90;;;;;;5034949;28;20604;-73
2022/06/24 03:15:22;;;;;;;2.83;1.53;;;22.10;99.90;;;;;;5035025;28;20624;-73
2022/06/24 03:17:48;;;;;;;3.33;1.70;;;22.20;99.90;;;;;;5034993;28;20181;-73
2022/06/24 03:20:14;;;;;;;3.33;1.97;;;22.20;99.90;;;;;;5033400;28;20564;-73
2022/06/24 03:22:40;;;;;;;3.07;1.90;;;22.10;99.90;;;;;;5033174;28;20746;-73
2022/06/24 03:25:07;;;;;;;2.40;1.60;;;22.10;99.90;;;;;;5034670;28;20580;-73
2022/06/24 03:27:36;;;;;;;3.07;2.17;;;22.10;99.90;;;;;;5034882;28;20569;-73
2022/06/24 03:30:06;;;;;;;3.40;1.70;;;22.10;99.90;;;;;;5034683;28;21103;-73
2022/06/24 03:32:33;;;;;;;2.37;2.17;;;22.10;99.90;;;;;;5033126;28;20650;-73
2022/06/24 03:34:59;;;;;;;3.63;1.63;;;22.00;99.90;;;;;;5033477;28;20665;-73
2022/06/24 03:37:26;;;;;;;2.83;1.83;;;22.10;99.90;;;;;;5033355;28;20587;-73
2022/06/24 03:39:52;;;;;;;4.23;1.90;;;22.10;99.90;;;;;;5032993;28;20582;-73
2022/06/24 03:42:18;;;;;;;2.60;1.70;;;22.10;99.90;;;;;;5034201;28;21392;-73
2022/06/24 03:44:43;;;;;;;3.17;2.17;;;22.00;99.90;;;;;;5032591;28;20202;-73
2022/06/24 03:47:09;;;;;;;1.93;1.73;;;22.00;99.90;;;;;;5014711;28;20584;-73
2022/06/24 03:49:35;;;;;;;3.33;2.23;;;22.00;99.90;;;;;;5014658;28;20182;-73
2022/06/24 03:52:01;;;;;;;5.23;2.20;;;22.00;99.90;;;;;;5014006;28;20198;-73
2022/06/24 03:54:27;;;;;;;2.90;1.93;;;22.00;99.90;;;;;;5013102;28;20214;-73
2022/06/24 03:56:52;;;;;;;3.37;2.60;;;22.00;99.90;;;;;;5014238;28;20174;-73
2022/06/24 03:59:18;;;;;;;4.23;2.40;;;22.00;99.90;;;;;;5014674;28;20229;-73
2022/06/24 04:01:44;;;;;;;3.63;1.80;;;22.00;99.90;;;;;;5013558;28;20167;-72
2022/06/24 04:04:10;;;;;;;3.00;1.83;;;22.00;99.90;;;;;;5013302;28;20247;-72
2022/06/24 04:06:36;;;;;;;2.73;1.80;;;22.00;99.90;;;;;;5013175;28;20265;-73
2022/06/24 04:09:02;;;;;;;5.50;2.33;;;22.00;99.90;;;;;;5013380;28;20572;-73
2022/06/24 04:11:28;;;;;;;4.33;2.23;;;22.00;99.90;;;;;;5013420;28;20182;-72
2022/06/24 04:13:54;;;;;;;2.27;2.07;;;21.90;99.90;;;;;;5014249;28;20621;-73
2022/06/24 04:16:20;;;;;;;3.63;2.07;;;22.00;99.90;;;;;;5014175;28;20588;-73
2022/06/24 04:18:48;;;;;;;6.13;2.17;;;22.10;99.90;;;;;;5012930;28;20181;-74
2022/06/24 04:21:17;;;;;;;2.13;1.60;;;22.00;99.90;;;;;;5013267;28;20619;-73
2022/06/24 04:23:44;;;;;;;4.60;2.50;;;22.10;99.90;;;;;;5013652;28;20696;-74
2022/06/24 04:26:11;;;;;;;3.90;2.10;;;22.10;99.90;;;;;;5013945;28;20583;-73
2022/06/24 04:28:38;;;;;;;3.33;1.83;;;22.20;99.90;;;;;;5013929;28;20566;-73
2022/06/24 04:31:04;;;;;;;3.50;2.53;;;22.20;99.90;;;;;;5012657;28;20576;-73
2022/06/24 04:33:30;;;;;;;4.83;2.27;;;22.30;99.90;;;;;;5012391;28;20641;-73
2022/06/24 04:35:56;;;;;;;2.37;2.17;;;22.30;99.90;;;;;;5013618;28;20711;-73
2022/06/24 04:38:22;;;;;;;3.00;1.93;;;22.40;99.90;;;;;;5013865;28;20976;-74
2022/06/24 04:40:48;;;;;;;5.20;2.80;;;22.50;99.90;;;;;;5012929;28;20562;-74
2022/06/24 04:43:14;;;;;;;2.97;2.33;;;22.50;99.90;;;;;;5012169;28;20671;-73
2022/06/24 04:45:40;;;;;;;4.50;3.10;;;22.60;99.90;;;;;;5013885;28;20577;-73
2022/06/24 04:48:06;;;;;;;3.03;2.73;;;22.60;99.90;;;;;;5012658;28;20689;-78
2022/06/24 04:50:32;;;;;;;5.30;3.03;;;22.60;99.90;;;;;;5013702;28;20569;-77
2022/06/24 04:52:58;;;;;;;3.77;2.27;;;22.70;99.90;;;;;;5007178;28;20612;-77
2022/06/24 04:55:24;;;;;;;3.07;2.30;;;22.70;99.90;;;;;;5025547;28;20623;-78
2022/06/24 04:57:50;;;;;;;3.20;2.53;;;22.70;99.90;;;;;;5024118;28;20629;-76
2022/06/24 05:00:17;;;;;;;6.03;3.50;;;22.80;99.90;;;;;;5026108;28;21160;-76
2022/06/24 05:02:43;;;;;;;4.70;2.77;;;22.80;99.90;;;;;;5030350;28;20219;-75
2022/06/24 05:05:10;;;;;;;4.30;3.07;;;22.80;99.90;;;;;;5029659;28;21503;-76
2022/06/24 05:07:36;;;;;;;5.43;3.30;;;22.90;99.90;;;;;;5019654;28;20557;-77
2022/06/24 05:10:02;;;;;;;3.87;2.13;;;22.90;99.90;;;;;;4998135;28;20584;-78
2022/06/24 05:12:28;;;;;;;3.30;2.27;;;22.90;99.90;;;;;;5013275;28;20595;-76
2022/06/24 05:14:54;;;;;;;8.07;3.00;;;22.90;99.90;;;;;;5013262;28;21177;-78
2022/06/24 05:17:19;;;;;;;5.47;3.00;;;22.90;99.90;;;;;;5011542;28;20185;-81
2022/06/24 05:19:45;;;;;;;3.10;2.70;;;22.90;99.90;;;;;;5012201;28;20170;-81
2022/06/24 05:22:11;;;;;;;3.30;2.43;;;22.90;99.90;;;;;;5011918;28;20210;-79
2022/06/24 05:24:37;;;;;;;3.30;2.33;;;23.00;99.90;;;;;;5013844;28;20178;-78
2022/06/24 05:27:04;;;;;;;4.10;3.13;;;23.00;99.90;;;;;;5013172;28;20589;-79
2022/06/24 05:29:29;;;;;;;6.20;4.07;;;23.00;99.90;;;;;;5013416;28;20257;-79
2022/06/24 05:31:55;;;;;;;8.07;4.57;;;23.00;99.90;;;;;;5015546;28;20596;-79
2022/06/24 05:34:21;;;;;;;11.00;4.20;;;23.00;99.90;;;;;;5012917;28;20636;-77
2022/06/24 05:36:47;;;;;;;6.37;3.40;;;23.00;99.90;;;;;;5012638;28;20225;-79
2022/06/24 05:39:13;;;;;;;4.43;2.40;;;23.00;99.90;;;;;;5014277;28;20171;-78
2022/06/24 05:41:41;;;;;;;3.20;2.13;;;23.00;99.90;;;;;;5012318;28;20533;-79
2022/06/24 05:44:07;;;;;;;2.97;2.20;;;23.00;99.90;;;;;;5012451;28;20695;-79
2022/06/24 05:46:33;;;;;;;3.67;2.50;;;23.00;99.90;;;;;;4996587;28;20599;-78
2022/06/24 05:48:59;;;;;;;3.90;2.50;;;22.90;99.90;;;;;;5011524;28;20565;-78
2022/06/24 05:51:26;;;;;;;4.27;2.27;;;22.80;99.90;;;;;;5013396;28;20179;-78
2022/06/24 05:56:36;;;;;;;4.20;1.77;;;22.70;99.90;;;;;;5013785;28;20925;-77
2022/06/24 05:59:03;;;;;;;2.37;1.27;;;22.70;99.90;;;;;;5014997;28;20665;-78
2022/06/24 06:01:29;;;;;;;5.33;2.47;;;22.70;99.90;;;;;;5020214;28;20574;-80
2022/06/24 06:03:55;;;;;;;3.80;1.30;;;22.70;99.90;;;;;;5016507;28;21204;-78
2022/06/24 06:06:21;;;;;;;4.90;1.80;;;22.70;99.90;;;;;;5012343;28;20664;-78
2022/06/24 06:08:47;;;;;;;9.27;1.70;;;22.80;99.90;;;;;;5011830;28;20641;-79
2022/06/24 06:11:21;;;;;;;4.13;2.13;;;22.80;99.90;;;;;;5011977;28;20577;-77
2022/06/24 06:13:49;;;;;;;3.87;1.63;;;22.80;99.90;;;;;;5010499;28;20205;-79
2022/06/24 06:16:16;;;;;;;5.60;1.90;;;22.80;99.90;;;;;;5014441;28;20615;-78
2022/06/24 06:18:42;;;;;;;5.97;1.63;;;22.70;99.90;;;;;;5010654;28;20976;-81
2022/06/24 06:21:09;;;;;;;3.10;1.40;;;22.80;99.90;;;;;;5010423;28;20581;-79
2022/06/24 06:23:37;;;;;;;3.30;1.27;;;22.80;99.90;;;;;;5010926;28;20962;-81
2022/06/24 06:26:06;;;;;;;3.63;1.20;;;22.90;99.90;;;;;;5012766;28;20604;-80
2022/06/24 06:28:32;;;;;;;3.73;1.60;;;22.90;99.90;;;;;;5012355;28;20565;-81
2022/06/24 06:30:58;;;;;;;3.80;1.43;;;22.90;99.90;;;;;;5026361;28;20557;-81
2022/06/24 06:33:25;;;;;;;2.33;1.20;;;23.00;99.90;;;;;;5027628;28;20696;-80
2022/06/24 06:35:51;;;;;;;4.00;1.90;;;23.10;99.90;;;;;;5011416;28;21141;-78
2022/06/24 06:38:17;;;;;;;4.40;1.20;;;23.20;99.90;;;;;;5011391;28;20557;-77
2022/06/24 06:40:43;;;;;;;3.33;1.37;;;23.20;99.90;;;;;;5012084;28;20568;-78
2022/06/24 06:43:09;;;;;;;3.30;1.37;;;23.40;99.90;;;;;;5012380;28;20933;-77
2022/06/24 06:45:37;;;;;;;7.27;1.50;;;23.50;99.90;;;;;;5018261;28;20182;-77
2022/06/24 06:48:04;;;;;;;6.57;1.73;;;23.70;99.90;;;;;;5011688;28;20584;-77
2022/06/24 06:50:30;;;;;;;3.93;1.40;;;23.70;99.90;;;;;;5017916;28;20591;-76
2022/06/24 06:52:55;;;;;;;2.90;1.30;;;23.60;99.90;;;;;;5012737;28;21035;-76
2022/06/24 06:55:21;;;;;;;2.97;1.30;;;23.60;99.90;;;;;;5010434;28;20960;-76
2022/06/24 06:57:48;;;;;;;4.63;1.30;;;23.60;99.90;;;;;;4992606;28;20186;-76
2022/06/24 07:00:15;;;;;;;7.00;1.60;;;23.60;99.90;;;;;;4993313;28;20567;-74
2022/06/24 07:02:41;;;;;;;5.10;1.60;;;23.60;99.90;;;;;;4991179;28;20586;-77
2022/06/24 07:05:07;;;;;;;3.90;2.03;;;23.70;99.90;;;;;;4992312;28;21177;-77
2022/06/24 07:07:34;;;;;;;5.70;1.67;;;23.80;99.90;;;;;;4991807;28;20182;-77
2022/06/24 07:10:00;;;;;;;3.07;1.57;;;23.80;99.90;;;;;;4991419;28;20966;-76
2022/06/24 07:12:27;;;;;;;3.50;1.23;;;23.90;99.90;;;;;;4990913;28;20582;-79
2022/06/24 07:14:53;;;;;;;3.67;1.50;;;24.00;99.90;;;;;;4990969;28;20614;-78
2022/06/24 07:17:19;;;;;;;5.33;1.40;;;24.00;99.90;;;;;;4997529;28;20684;-78
2022/06/24 07:19:46;;;;;;;3.37;1.63;;;24.10;99.90;;;;;;5026492;28;20736;-78
2022/06/24 07:22:14;;;;;;;3.17;1.60;;;24.20;99.90;;;;;;5026555;28;20615;-77
2022/06/24 07:24:40;;;;;;;2.90;1.20;;;24.20;99.90;;;;;;5011367;28;21097;-78
2022/06/24 07:27:08;;;;;;;5.20;1.57;;;24.30;99.90;;;;;;5011443;28;20661;-79
2022/06/24 07:29:35;;;;;;;2.27;0.83;;;24.30;99.90;;;;;;5012133;28;20568;-79
2022/06/24 07:32:05;;;;;;;2.57;0.80;;;24.10;99.90;;;;;;5025882;28;20577;-79
2022/06/24 07:34:32;;;;;;;3.87;0.90;;;24.00;99.90;;;;;;5010137;28;20624;-78
2022/06/24 07:36:59;;;;;;;4.03;0.90;;;23.80;99.90;;;;;;5020162;28;20616;-79
2022/06/24 07:39:25;;;;;;;1.73;0.63;;;23.60;99.90;;;;;;5009661;28;20936;-78
2022/06/24 07:41:53;;;;;;;4.70;0.70;;;23.30;99.90;;;;;;5010360;28;20580;-78
2022/06/24 07:44:21;;;;;;;1.70;0.87;;;23.10;99.90;;;;;;5013657;28;20577;-77
2022/06/24 07:46:48;;;;;;;3.70;0.80;;;22.90;99.90;;;;;;5013472;28;20940;-79
2022/06/24 07:49:14;;;;;;;3.20;1.07;;;22.60;99.90;;;;;;5013301;28;20708;-79
2022/06/24 07:51:40;;;;;;;2.23;0.90;;;22.40;99.90;;;;;;5013860;28;20569;-79
2022/06/24 07:54:07;;;;;;;2.20;1.00;;;22.30;99.90;;;;;;5013078;28;20991;-79
2022/06/24 07:59:19;;;;;;;1.90;1.03;;;22.00;99.90;;;;;;5013047;28;20565;-78
2022/06/24 08:01:44;;;;;;;1.93;1.10;;;21.90;99.90;;;;;;5013346;28;20620;-77
2022/06/24 08:04:11;;;;;;;3.07;1.50;;;21.80;99.90;;;;;;5030309;28;20229;-79
2022/06/24 08:06:46;;;;;;;3.40;1.20;;;21.70;99.90;;;;;;5016537;28;20170;-77
2022/06/24 08:09:15;;;;;;;1.80;1.20;;;21.60;99.90;;;;;;5014386;28;21037;-77
2022/06/24 08:11:41;;;;;;;2.83;1.30;;;21.60;99.90;;;;;;5013356;28;20645;-77
2022/06/24 08:14:07;;;;;;;2.40;1.30;;;21.50;99.90;;;;;;5013800;28;20627;-80
2022/06/24 08:16:33;;;;;;;2.57;1.80;;;21.50;99.90;;;;;;5014285;28;20655;-79
2022/06/24 08:18:59;;;;;;;2.73;1.70;;;21.50;99.90;;;;;;5025813;28;20684;-78
2022/06/24 08:21:25;;;;;;;2.60;1.40;;;21.40;99.90;;;;;;5024917;28;20743;-78
2022/06/24 08:23:51;;;;;;;2.60;1.63;;;21.40;99.90;;;;;;5029443;28;20194;-79
2022/06/24 08:26:17;;;;;;;2.10;1.73;;;21.50;99.90;;;;;;5018668;28;20182;-78
2022/06/24 08:28:44;;;;;;;1.80;1.27;;;21.50;99.90;;;;;;4996965;28;20190;-78
2022/06/24 08:31:10;;;;;;;2.97;2.23;;;21.50;99.90;;;;;;5022627;28;20228;-79
2022/06/24 08:33:35;;;;;;;2.70;2.03;;;21.50;99.90;;;;;;5028092;28;20621;-79
2022/06/24 08:36:02;;;;;;;2.93;1.80;;;21.50;99.90;;;;;;5021139;28;20181;-80
2022/06/24 08:38:28;;;;;;;2.60;1.40;;;21.50;99.90;;;;;;5019779;28;20593;-79
2022/06/24 08:40:54;;;;;;;4.37;2.27;;;21.50;99.90;;;;;;5035815;28;21116;-79
2022/06/24 08:43:23;;;;;;;2.60;2.10;;;21.50;99.90;;;;;;5036094;28;20692;-78
2022/06/24 08:45:49;;;;;;;2.40;1.93;;;21.50;99.90;;;;;;5033299;28;21154;-78
2022/06/24 08:48:16;;;;;;;1.93;1.63;;;21.50;99.90;;;;;;5033150;28;20965;-80
2022/06/24 08:50:42;;;;;;;2.93;1.73;;;21.50;99.90;;;;;;5030275;28;20568;-80
2022/06/24 08:53:10;;;;;;;3.20;1.93;;;21.50;99.90;;;;;;5012219;28;20614;-78
2022/06/24 08:55:41;;;;;;;2.60;2.27;;;21.60;99.90;;;;;;5012935;28;21187;-77
2022/06/24 08:58:09;;;;;;;3.73;2.33;;;21.60;99.90;;;;;;5013132;28;20681;-77
2022/06/24 09:00:35;;;;;;;2.57;1.97;;;21.70;99.90;;;;;;5009457;28;20685;-79
2022/06/24 09:03:05;;;;;;;2.77;2.20;;;21.70;99.90;;;;;;5012864;28;20612;-79
2022/06/24 09:05:31;;;;;;;4.57;3.22;;;21.80;99.90;;;;;;4996621;28;20714;-78
2022/06/24 09:08:08;;;;;;;3.10;2.40;;;21.80;99.90;;;;;;4996266;28;20205;-78
2022/06/24 09:10:36;;;;;;;2.63;1.93;;;21.80;99.90;;;;;;5009659;28;20666;-78
2022/06/24 09:13:02;;;;;;;3.50;2.10;;;21.90;99.90;;;;;;5011538;28;20596;-78
2022/06/24 09:15:28;;;;;;;3.47;2.13;;;22.00;99.90;;;;;;5011774;28;20628;-78
2022/06/24 09:17:54;;;;;;;2.67;2.10;;;22.00;99.90;;;;;;5012079;28;20930;-78
2022/06/24 09:20:25;;;;;;;2.27;2.03;;;22.10;99.90;;;;;;5012346;28;20566;-78
2022/06/24 09:23:08;;;;;;;2.77;2.20;;;22.20;99.90;;;;;;5010385;28;21195;-78
2022/06/24 09:25:41;;;;;;;3.63;2.50;;;22.30;99.90;;;;;;5010559;28;20578;-78
2022/06/24 09:28:06;;;;;;;3.47;2.17;;;22.50;99.90;;;;;;5012620;28;20696;-78
2022/06/24 09:30:38;;;;;;;3.00;2.70;;;22.70;99.90;;;;;;5010992;28;20587;-78
2022/06/24 09:33:04;;;;;;;2.80;2.57;;;22.90;99.90;;;;;;5012610;28;20233;-78
2022/06/24 09:35:34;;;;;;;3.90;2.43;;;23.30;99.90;;;;;;5012441;28;21022;-78
2022/06/24 09:38:00;;;;;;;2.93;2.63;;;23.60;99.90;;;;;;5012707;28;20569;-78
2022/06/24 09:40:28;;;;;;;3.00;2.00;;;24.00;99.90;;;;;;5010624;28;20608;-78
2022/06/24 09:43:06;;;;;;;3.43;2.73;;;24.40;99.90;;;;;;5011220;28;20344;-78
2022/06/24 09:45:52;;;;;;;3.63;2.63;;;24.90;99.90;;;;;;5011162;28;20707;-78
2022/06/24 09:48:30;;;;;;;2.20;1.97;;;25.50;99.90;;;;;;5011275;28;20924;-78
2022/06/24 09:51:01;;;;;;;2.20;1.87;;;26.20;99.90;;;;;;5010352;28;20632;-78
2022/06/24 09:53:32;;;;;;;2.70;2.13;;;26.90;99.90;;;;;;4994549;28;21186;-78
2022/06/24 09:55:59;;;;;;;1.87;1.67;;;27.80;99.90;;;;;;5011784;28;20627;-79
2022/06/24 09:58:25;;;;;;;2.50;1.90;;;28.80;99.90;;;;;;5011409;28;20935;-79
2022/06/24 10:00:52;;;;;;;1.93;1.77;;;29.80;99.90;;;;;;5009175;28;20660;-80
2022/06/24 10:03:18;;;;;;;2.20;1.43;;;30.60;99.90;;;;;;5009568;28;20597;-80
2022/06/24 10:05:46;;;;;;;1.90;1.37;;;31.40;99.90;;;;;;5011358;28;20570;-80
2022/06/24 10:08:20;;;;;;;2.63;1.43;;;32.20;99.90;;;;;;5012094;28;20924;-80
2022/06/24 10:10:54;;;;;;;4.67;1.70;;;32.90;99.90;;;;;;5011448;28;20621;-79
2022/06/24 10:13:24;;;;;;;2.43;1.27;;;33.50;99.90;;;;;;5012076;28;20606;-79
2022/06/24 10:15:51;;;;;;;1.50;1.00;;;34.30;99.90;;;;;;5012168;28;20682;-78
2022/06/24 10:18:19;;;;;;;1.73;1.33;;;35.00;99.90;;;;;;5010572;28;21094;-80
2022/06/24 10:20:46;;;;;;;3.10;1.27;;;35.60;99.90;;;;;;5011685;28;20619;-79
2022/06/24 10:23:46;;;;;;;2.90;0.90;;;36.30;99.90;;;;;;5017531;28;21270;-79
2022/06/24 10:26:21;;;;;;;2.33;0.90;;;37.00;99.90;;;;;;5022914;28;20672;-77
2022/06/24 10:29:00;;;;;;;2.00;0.97;;;37.60;99.90;;;;;;5013667;28;20680;-79
2022/06/24 10:31:45;;;;;;;1.50;0.97;;;37.80;99.90;;;;;;5009543;28;20963;-79
2022/06/24 10:34:27;;;;;;;1.30;0.70;;;37.80;99.90;;;;;;5010895;28;20640;-79
2022/06/24 10:37:12;;;;;;;2.60;1.50;;;37.70;99.90;;;;;;5011683;28;20878;-79
2022/06/24 10:39:51;;;;;;;2.43;1.13;;;37.60;98.00;;;;;;5011380;28;20578;-80
2022/06/24 10:42:21;;;;;;;2.57;1.40;;;37.30;97.10;;;;;;5011039;28;21008;-79
2022/06/24 10:45:05;;;;;;;2.00;1.20;;;36.80;96.10;;;;;;4993984;28;20702;-79
2022/06/24 10:47:34;;;;;;;3.60;1.00;;;36.20;94.70;;;;;;5010743;28;20989;-74
2022/06/24 10:50:01;;;;;;;1.63;0.97;;;35.70;94.10;;;;;;5011386;28;20678;-74
2022/06/24 10:52:48;;;;;;;2.47;1.20;;;35.60;96.90;;;;;;5009722;28;21168;-74
2022/06/24 10:55:29;;;;;;;1.93;1.00;;;35.40;95.00;;;;;;5011344;28;20623;-74
2022/06/24 10:58:00;;;;;;;2.43;1.20;;;35.40;95.70;;;;;;5011598;28;20572;-74
2022/06/24 11:00:36;;;;;;;2.77;1.30;;;35.50;96.70;;;;;;5010796;28;20980;-74
2022/06/24 11:03:05;;;;;;;1.80;1.30;;;35.50;96.70;;;;;;5011533;28;20708;-74
2022/06/24 11:05:34;;;;;;;1.77;1.17;;;35.50;94.60;;;;;;5011365;28;21147;-74
2022/06/24 11:08:00;;;;;;;5.93;1.20;;;35.30;94.30;;;;;;5010004;28;20620;-74
2022/06/24 11:10:30;;;;;;;2.20;1.00;;;35.30;95.10;;;;;;5010711;28;20992;-74
2022/06/24 11:12:59;;;;;;;3.00;1.17;;;35.20;94.20;;;;;;5010187;28;20616;-74
2022/06/24 11:15:48;;;;;;;1.80;1.30;;;35.00;93.50;;;;;;5011345;28;20727;-74
2022/06/24 11:18:23;;;;;;;2.27;1.07;;;34.60;92.20;;;;;;5013003;28;20606;-74
2022/06/24 11:20:59;;;;;;;1.90;1.00;;;34.30;92.10;;;;;;4996725;28;20580;-74
2022/06/24 11:23:28;;;;;;;3.43;1.40;;;33.90;92.30;;;;;;5013774;28;20612;-74
2022/06/24 11:26:01;;;;;;;2.33;1.47;;;33.60;92.30;;;;;;5013995;28;21190;-74
2022/06/24 11:28:28;;;;;;;3.97;1.70;;;33.30;91.20;;;;;;5015105;28;20578;-74
2022/06/24 11:31:12;;;;;;;3.43;1.70;;;33.00;92.00;;;;;;5014336;28;20935;-74
2022/06/24 11:33:37;;;;;;;2.77;1.30;;;32.60;92.00;;;;;;5015047;28;20704;-74
2022/06/24 11:36:03;;;;;;;3.20;1.40;;;32.20;92.40;;;;;;5015039;28;20593;-74
2022/06/24 11:38:29;;;;;;;2.10;1.37;;;31.80;92.70;;;;;;5013519;28;20182;-74
2022/06/24 11:40:56;;;;;;;4.67;1.40;;;31.40;93.00;;;;;;5013188;28;20190;-74
2022/06/24 11:43:21;;;;;;;6.13;1.93;;;30.90;93.30;;;;;;5014886;28;20202;-74
2022/06/24 11:45:48;;;;;;;2.33;1.30;;;30.40;93.60;;;;;;5015030;28;20923;-73
2022/06/24 11:48:24;;;;;;;2.17;1.40;;;29.90;94.10;;;;;;5014486;28;20261;-74
2022/06/24 11:50:54;;;;;;;5.53;1.80;;;29.60;95.20;;;;;;5013728;28;20568;-74
2022/06/24 11:53:24;;;;;;;3.43;1.80;;;29.20;95.70;;;;;;5014617;28;20589;-74
2022/06/24 11:55:52;;;;;;;5.13;2.23;;;28.90;96.60;;;;;;5014699;28;20679;-74
2022/06/24 11:58:21;;;;;;;4.50;2.07;;;28.70;97.20;;;;;;5013397;28;20620;-74
2022/06/24 12:00:47;;;;;;;2.03;1.83;;;28.60;98.40;;;;;;5013657;28;20562;-74
2022/06/24 12:03:14;;;;;;;2.90;1.70;;;28.50;99.00;;;;;;5014257;28;20596;-74
2022/06/24 12:05:45;;;;;;;4.90;2.00;;;28.60;99.50;;;;;;5014271;28;20570;-74
2022/06/24 12:08:12;;;;;;;2.23;1.57;;;28.70;99.90;;;;;;5014333;28;20581;-74
2022/06/24 12:10:52;;;;;;;2.70;1.53;;;29.00;99.90;;;;;;5013569;28;20561;-74
2022/06/24 12:13:29;;;;;;;2.37;1.30;;;29.30;99.90;;;;;;5012865;28;20640;-74
2022/06/24 12:15:56;;;;;;;1.83;1.37;;;29.70;99.90;;;;;;4995091;28;20709;-74
2022/06/24 12:18:24;;;;;;;2.50;1.83;;;30.10;99.90;;;;;;4994828;28;20598;-74
2022/06/24 12:21:01;;;;;;;1.60;1.20;;;30.40;99.90;;;;;;4993312;28;20558;-74
2022/06/24 12:23:32;;;;;;;2.63;1.20;;;30.60;99.90;;;;;;5013560;28;20607;-74
2022/06/24 12:25:58;;;;;;;3.43;1.17;;;30.90;99.90;;;;;;5026671;28;20584;-74
2022/06/24 12:28:26;;;;;;;1.83;1.20;;;31.10;99.90;;;;;;5032992;28;20566;-74
2022/06/24 12:31:04;;;;;;;1.57;1.10;;;31.30;99.90;;;;;;5031521;28;20598;-74
2022/06/24 12:33:51;;;;;;;2.40;1.70;;;31.40;98.90;;;;;;5033613;28;20699;-74
2022/06/24 12:36:19;;;;;;;4.33;1.30;;;31.40;98.20;;;;;;5032179;28;20583;-74
2022/06/24 12:38:45;;;;;;;2.03;1.37;;;31.30;97.90;;;;;;5024525;28;20638;-74
2022/06/24 12:41:13;;;;;;;3.10;2.10;;;31.30;97.60;;;;;;5014906;28;21152;-75
2022/06/24 12:44:03;;;;;;;2.57;2.00;;;31.20;97.10;;;;;;5032010;28;20248;-74
2022/06/24 12:50:35;;;;;;;2.17;1.30;;;31.10;96.50;;;;;;5033440;28;20568;-74
2022/06/24 12:52:38;;;;;;;2.47;1.17;;;30.80;96.40;;;;;;5025301;28;20624;-73
2022/06/24 12:55:13;;;;;;;2.53;1.40;;;30.70;96.80;;;;;;5026803;28;20628;-74
2022/06/24 12:57:39;;;;;;;2.10;1.30;;;30.60;97.10;;;;;;5025352;28;20682;-74
2022/06/24 13:00:08;;;;;;;2.27;1.47;;;30.50;97.10;;;;;;5025414;28;20587;-74
2022/06/24 13:02:43;;;;;;;2.77;1.67;;;30.50;97.00;;;;;;5021752;28;20620;-73
2022/06/24 13:05:10;;;;;;;2.60;1.20;;;30.50;96.60;;;;;;5011113;28;21196;-73